Terminal Aerodrome Forecast
Issued by NWS

Home | Current Version | Previous Version | Text Only | Print | Product List | Glossary On
Versions: 1 2 3 4 5 6 7 8 9 10 11 12 13 14 15 16 17 18 19 20 21
102
FTAK31 PAJN 302207 AAB
TAFAYA
TAF AMD
PAYA 302207Z 3022/3118 09008KT P6SM -RA OVC040 WS020/14025KT
      TEMPO 3022/3024 5SM -RASN BR BKN014 OVC025
     FM310000 11012G20KT 5SM -RA BR OVC030 WS020/14040KT
     FM310400 11015G35KT 3SM -RA BR OVC015 WS020/13045KT
      AMD LTD TO CLD VIS AND WIND 3101/3109=

USA.gov is the U.S. government's official web portal to all federal, state and local government web resources and services.